AIR23 EGKK-EGCC
Flight info
| Callsign | AIR23 |
|---|---|
| Flight time | 0h 37m |
| Altitude | 24000 |
| Route | LAM1Z LAM N57 WELIN DCT TIMPO DCT ELVOS DCT TNT DCT |
| Aircraft | A320/L-V/N |
Departure
| Time | 2026-05-07 14:42 |
|---|---|
| Airport | London Gatwick Airport (EGKK) |
Arrival
| Time | 2026-05-07 15:19 |
|---|---|
| Airport | Manchester Airport (EGCC) |
| Time | Latitude | Longitude | Altitude | Speed | Heading |
|---|---|---|---|---|---|
| 2026-05-07 14:14 | 51.15809 | -0.17753 | 205 ft | 0 kts | 349° |
| 2026-05-07 14:22 | 51.15800 | -0.17750 | 212 ft | 1 kts | 349° |
| 2026-05-07 14:22 | 51.15795 | -0.17748 | 210 ft | 0 kts | 349° |
| 2026-05-07 14:26 | 51.15789 | -0.17746 | 214 ft | 1 kts | 349° |
| 2026-05-07 14:27 | 51.15781 | -0.17744 | 211 ft | 1 kts | 349° |
| 2026-05-07 14:27 | 51.15774 | -0.17742 | 207 ft | 1 kts | 349° |
| 2026-05-07 14:27 | 51.15766 | -0.17739 | 207 ft | 1 kts | 349° |
| 2026-05-07 14:27 | 51.15758 | -0.17738 | 207 ft | 1 kts | 353° |
| 2026-05-07 14:28 | 51.15750 | -0.17738 | 207 ft | 1 kts | 0° |
| 2026-05-07 14:28 | 51.15742 | -0.17740 | 207 ft | 1 kts | 7° |
| 2026-05-07 14:28 | 51.15735 | -0.17744 | 207 ft | 1 kts | 20° |
| 2026-05-07 14:28 | 51.15729 | -0.17752 | 212 ft | 1 kts | 40° |
| 2026-05-07 14:29 | 51.15727 | -0.17764 | 209 ft | 1 kts | 70° |
| 2026-05-07 14:29 | 51.15727 | -0.17767 | 208 ft | 0 kts | 79° |
| 2026-05-07 14:33 | 51.15727 | -0.17762 | 209 ft | 1 kts | 78° |
| 2026-05-07 14:33 | 51.15729 | -0.17745 | 205 ft | 2 kts | 78° |
| 2026-05-07 14:33 | 51.15736 | -0.17696 | 205 ft | 7 kts | 76° |
| 2026-05-07 14:33 | 51.15750 | -0.17592 | 215 ft | 13 kts | 76° |
| 2026-05-07 14:34 | 51.15753 | -0.17541 | 205 ft | 3 kts | 120° |
| 2026-05-07 14:34 | 51.15724 | -0.17503 | 208 ft | 7 kts | 177° |
| 2026-05-07 14:34 | 51.15676 | -0.17487 | 205 ft | 11 kts | 164° |
| 2026-05-07 14:34 | 51.15589 | -0.17455 | 205 ft | 16 kts | 171° |
| 2026-05-07 14:35 | 51.15467 | -0.17413 | 205 ft | 21 kts | 168° |
| 2026-05-07 14:35 | 51.15345 | -0.17370 | 205 ft | 10 kts | 178° |
| 2026-05-07 14:35 | 51.15299 | -0.17428 | 208 ft | 12 kts | 259° |
| 2026-05-07 14:35 | 51.15282 | -0.17604 | 205 ft | 20 kts | 257° |
| 2026-05-07 14:36 | 51.15246 | -0.17865 | 205 ft | 27 kts | 257° |
| 2026-05-07 14:36 | 51.15198 | -0.18197 | 210 ft | 34 kts | 260° |
| 2026-05-07 14:36 | 51.15151 | -0.18595 | 205 ft | 39 kts | 259° |
| 2026-05-07 14:36 | 51.15090 | -0.19028 | 205 ft | 43 kts | 256° |
| 2026-05-07 14:37 | 51.15021 | -0.19506 | 207 ft | 46 kts | 254° |
| 2026-05-07 14:37 | 51.14885 | -0.20507 | 211 ft | 48 kts | 257° |
| 2026-05-07 14:37 | 51.14812 | -0.21042 | 215 ft | 51 kts | 255° |
| 2026-05-07 14:38 | 51.14757 | -0.21374 | 206 ft | 0 kts | 242° |
| 2026-05-07 14:38 | 51.14756 | -0.21377 | 205 ft | 2 kts | 235° |
| 2026-05-07 14:38 | 51.14730 | -0.21408 | 208 ft | 7 kts | 185° |
| 2026-05-07 14:38 | 51.14690 | -0.21393 | 205 ft | 8 kts | 148° |
| 2026-05-07 14:39 | 51.14630 | -0.21337 | 208 ft | 6 kts | 168° |
| 2026-05-07 14:39 | 51.14627 | -0.21337 | 207 ft | 0 kts | 156° |
| 2026-05-07 14:40 | 51.14616 | -0.21329 | 208 ft | 5 kts | 156° |
| 2026-05-07 14:40 | 51.14559 | -0.21285 | 208 ft | 12 kts | 144° |
| 2026-05-07 14:41 | 51.14525 | -0.21148 | 213 ft | 22 kts | 82° |
| 2026-05-07 14:41 | 51.14609 | -0.20473 | 209 ft | 110 kts | 78° |
| 2026-05-07 14:41 | 51.14841 | -0.18854 | 219 ft | 185 kts | 78° |
| 2026-05-07 14:41 | 51.15173 | -0.16514 | 366 ft | 245 kts | 78° |
| 2026-05-07 14:42 | 51.15530 | -0.13914 | 1192 ft | 247 kts | 79° |
| 2026-05-07 14:42 | 51.15908 | -0.11135 | 1806 ft | 256 kts | 79° |
| 2026-05-07 14:42 | 51.16317 | -0.08340 | 2241 ft | 263 kts | 73° |
| 2026-05-07 14:42 | 51.17124 | -0.05670 | 3450 ft | 272 kts | 56° |
| 2026-05-07 14:43 | 51.18269 | -0.03301 | 4586 ft | 270 kts | 52° |
| 2026-05-07 14:43 | 51.19409 | -0.00951 | 4749 ft | 267 kts | 52° |
| 2026-05-07 14:43 | 51.20364 | 0.01044 | 4933 ft | 267 kts | 53° |
| 2026-05-07 14:43 | 51.21500 | 0.03415 | 5190 ft | 269 kts | 53° |
| 2026-05-07 14:44 | 51.22622 | 0.05752 | 5439 ft | 269 kts | 52° |
| 2026-05-07 14:44 | 51.23760 | 0.08118 | 5702 ft | 270 kts | 52° |
| 2026-05-07 14:44 | 51.24781 | 0.10672 | 5958 ft | 271 kts | 65° |
| 2026-05-07 14:44 | 51.25348 | 0.13548 | 6224 ft | 272 kts | 80° |
| 2026-05-07 14:45 | 51.25680 | 0.16524 | 6487 ft | 273 kts | 80° |
| 2026-05-07 14:45 | 51.26028 | 0.19508 | 6732 ft | 275 kts | 80° |
| 2026-05-07 14:45 | 51.26387 | 0.22526 | 6901 ft | 276 kts | 80° |
| 2026-05-07 14:45 | 51.26745 | 0.25538 | 6810 ft | 277 kts | 80° |
| 2026-05-07 14:46 | 51.27103 | 0.28553 | 6809 ft | 277 kts | 80° |
| 2026-05-07 14:46 | 51.27471 | 0.31579 | 6800 ft | 277 kts | 77° |
| 2026-05-07 14:46 | 51.28330 | 0.34313 | 6805 ft | 278 kts | 50° |
| 2026-05-07 14:46 | 51.29881 | 0.36149 | 6808 ft | 280 kts | 22° |
| 2026-05-07 14:47 | 51.31757 | 0.36677 | 6822 ft | 279 kts | 355° |
| 2026-05-07 14:47 | 51.33625 | 0.35898 | 6834 ft | 278 kts | 336° |
| 2026-05-07 14:47 | 51.35395 | 0.34620 | 6846 ft | 279 kts | 333° |
| 2026-05-07 14:47 | 51.37146 | 0.33287 | 6996 ft | 278 kts | 334° |
| 2026-05-07 14:48 | 51.38912 | 0.32007 | 6988 ft | 278 kts | 335° |
| 2026-05-07 14:48 | 51.40687 | 0.30787 | 6989 ft | 278 kts | 336° |
| 2026-05-07 14:48 | 51.42485 | 0.29594 | 6993 ft | 278 kts | 336° |
| 2026-05-07 14:48 | 51.44278 | 0.28425 | 6995 ft | 278 kts | 337° |
| 2026-05-07 14:49 | 51.46058 | 0.27272 | 7129 ft | 281 kts | 337° |
| 2026-05-07 14:49 | 51.47888 | 0.26085 | 7832 ft | 285 kts | 337° |
| 2026-05-07 14:49 | 51.49732 | 0.24887 | 9514 ft | 285 kts | 337° |
| 2026-05-07 14:49 | 51.51583 | 0.23682 | 11229 ft | 292 kts | 337° |
| 2026-05-07 14:50 | 51.53499 | 0.22433 | 12795 ft | 301 kts | 337° |
| 2026-05-07 14:50 | 51.55470 | 0.21146 | 14089 ft | 310 kts | 337° |
| 2026-05-07 14:50 | 51.57482 | 0.19832 | 14968 ft | 314 kts | 337° |
| 2026-05-07 14:50 | 51.59518 | 0.18501 | 15548 ft | 317 kts | 336° |
| 2026-05-07 14:51 | 51.61574 | 0.17155 | 16061 ft | 319 kts | 336° |
| 2026-05-07 14:51 | 51.63613 | 0.15701 | 16572 ft | 320 kts | 330° |
| 2026-05-07 14:51 | 51.65453 | 0.13687 | 17104 ft | 321 kts | 318° |
| 2026-05-07 14:51 | 51.67063 | 0.11150 | 17650 ft | 332 kts | 312° |
| 2026-05-07 14:52 | 51.68751 | 0.08349 | 18209 ft | 363 kts | 313° |
| 2026-05-07 14:52 | 51.70543 | 0.05403 | 18708 ft | 376 kts | 313° |
| 2026-05-07 14:52 | 51.72382 | 0.02392 | 19187 ft | 379 kts | 313° |
| 2026-05-07 14:52 | 51.74246 | -0.00663 | 19688 ft | 381 kts | 313° |
| 2026-05-07 14:53 | 51.76112 | -0.03731 | 20187 ft | 384 kts | 313° |
| 2026-05-07 14:53 | 51.77988 | -0.06823 | 20697 ft | 387 kts | 313° |
| 2026-05-07 14:53 | 51.79878 | -0.09943 | 21216 ft | 389 kts | 313° |
| 2026-05-07 14:53 | 51.81777 | -0.13083 | 21742 ft | 392 kts | 312° |
| 2026-05-07 14:54 | 51.83691 | -0.16253 | 22255 ft | 395 kts | 312° |
| 2026-05-07 14:54 | 51.85599 | -0.19417 | 22786 ft | 398 kts | 312° |
| 2026-05-07 14:54 | 51.87562 | -0.22675 | 23363 ft | 401 kts | 312° |
| 2026-05-07 14:54 | 51.89494 | -0.25888 | 23749 ft | 404 kts | 312° |
| 2026-05-07 14:55 | 51.91453 | -0.29147 | 23870 ft | 405 kts | 312° |
| 2026-05-07 14:55 | 51.93419 | -0.32424 | 23979 ft | 406 kts | 312° |
| 2026-05-07 14:55 | 51.95398 | -0.35726 | 24045 ft | 406 kts | 312° |
| 2026-05-07 14:55 | 51.97364 | -0.39013 | 24047 ft | 406 kts | 312° |
| 2026-05-07 14:56 | 51.99332 | -0.42307 | 24048 ft | 406 kts | 312° |
| 2026-05-07 14:56 | 52.01299 | -0.45603 | 24045 ft | 407 kts | 312° |
| 2026-05-07 14:56 | 52.03270 | -0.48911 | 24052 ft | 406 kts | 312° |
| 2026-05-07 14:56 | 52.05210 | -0.52172 | 24048 ft | 407 kts | 312° |
| 2026-05-07 14:57 | 52.07177 | -0.55481 | 24049 ft | 407 kts | 312° |
| 2026-05-07 14:57 | 52.09151 | -0.58807 | 24050 ft | 407 kts | 312° |
| 2026-05-07 14:57 | 52.11119 | -0.62127 | 24045 ft | 407 kts | 312° |
| 2026-05-07 14:57 | 52.13087 | -0.65453 | 24047 ft | 407 kts | 312° |
| 2026-05-07 14:58 | 52.15026 | -0.68734 | 24051 ft | 407 kts | 312° |
| 2026-05-07 14:58 | 52.16992 | -0.72065 | 24049 ft | 407 kts | 312° |
| 2026-05-07 14:58 | 52.18958 | -0.75401 | 24048 ft | 407 kts | 312° |
| 2026-05-07 14:58 | 52.20926 | -0.78744 | 24047 ft | 408 kts | 312° |
| 2026-05-07 14:59 | 52.22894 | -0.82091 | 24042 ft | 408 kts | 312° |
| 2026-05-07 14:59 | 52.25001 | -0.85205 | 24044 ft | 410 kts | 320° |
| 2026-05-07 14:59 | 52.27361 | -0.87842 | 24042 ft | 411 kts | 327° |
| 2026-05-07 14:59 | 52.29790 | -0.90225 | 24044 ft | 412 kts | 327° |
| 2026-05-07 15:00 | 52.32244 | -0.92667 | 24049 ft | 412 kts | 327° |
| 2026-05-07 15:00 | 52.34693 | -0.95115 | 24054 ft | 412 kts | 327° |
| 2026-05-07 15:00 | 52.37141 | -0.97564 | 24054 ft | 412 kts | 327° |
| 2026-05-07 15:00 | 52.39592 | -1.00016 | 24052 ft | 413 kts | 327° |
| 2026-05-07 15:01 | 52.42041 | -1.02468 | 24057 ft | 413 kts | 327° |
| 2026-05-07 15:01 | 52.44496 | -1.04926 | 24040 ft | 413 kts | 327° |
| 2026-05-07 15:01 | 52.46951 | -1.07388 | 24040 ft | 413 kts | 327° |
| 2026-05-07 15:01 | 52.49379 | -1.09827 | 24036 ft | 413 kts | 327° |
| 2026-05-07 15:02 | 52.51836 | -1.12297 | 24031 ft | 414 kts | 327° |
| 2026-05-07 15:02 | 52.54288 | -1.14766 | 24033 ft | 414 kts | 327° |
| 2026-05-07 15:02 | 52.56749 | -1.17247 | 24029 ft | 414 kts | 327° |
| 2026-05-07 15:02 | 52.59202 | -1.19722 | 24026 ft | 414 kts | 327° |
| 2026-05-07 15:03 | 52.61658 | -1.22203 | 24022 ft | 414 kts | 327° |
| 2026-05-07 15:03 | 52.63285 | -1.23847 | 24021 ft | 414 kts | 327° |
| 2026-05-07 15:03 | 52.65739 | -1.26331 | 24022 ft | 414 kts | 327° |
| 2026-05-07 15:03 | 52.68997 | -1.29635 | 24026 ft | 415 kts | 327° |
| 2026-05-07 15:04 | 52.71455 | -1.32131 | 24019 ft | 415 kts | 327° |
| 2026-05-07 15:04 | 52.73910 | -1.34631 | 24043 ft | 415 kts | 327° |
| 2026-05-07 15:04 | 52.75571 | -1.36323 | 24044 ft | 415 kts | 327° |
| 2026-05-07 15:04 | 52.78032 | -1.38835 | 24047 ft | 415 kts | 327° |
| 2026-05-07 15:05 | 52.80489 | -1.41346 | 23862 ft | 415 kts | 327° |
| 2026-05-07 15:05 | 52.82910 | -1.43822 | 23372 ft | 412 kts | 327° |
| 2026-05-07 15:05 | 52.85338 | -1.46309 | 22711 ft | 407 kts | 327° |
| 2026-05-07 15:05 | 52.87738 | -1.48770 | 22066 ft | 402 kts | 327° |
| 2026-05-07 15:06 | 52.90108 | -1.51204 | 21433 ft | 399 kts | 326° |
| 2026-05-07 15:06 | 52.92460 | -1.53622 | 20816 ft | 395 kts | 326° |
| 2026-05-07 15:06 | 52.94781 | -1.56012 | 20201 ft | 391 kts | 326° |
| 2026-05-07 15:06 | 52.97080 | -1.58383 | 19612 ft | 388 kts | 326° |
| 2026-05-07 15:07 | 52.99364 | -1.60741 | 19026 ft | 384 kts | 326° |
| 2026-05-07 15:07 | 53.01595 | -1.63046 | 18459 ft | 381 kts | 326° |
| 2026-05-07 15:07 | 53.03831 | -1.65415 | 17813 ft | 377 kts | 323° |
| 2026-05-07 15:07 | 53.05860 | -1.68157 | 17166 ft | 373 kts | 315° |
| 2026-05-07 15:08 | 53.07624 | -1.71291 | 16544 ft | 368 kts | 308° |
| 2026-05-07 15:08 | 53.09277 | -1.74530 | 15804 ft | 363 kts | 308° |
| 2026-05-07 15:08 | 53.10915 | -1.77698 | 14942 ft | 362 kts | 308° |
| 2026-05-07 15:08 | 53.12556 | -1.80868 | 14091 ft | 360 kts | 308° |
| 2026-05-07 15:09 | 53.14181 | -1.84014 | 13175 ft | 355 kts | 308° |
| 2026-05-07 15:09 | 53.15774 | -1.87105 | 12246 ft | 349 kts | 308° |
| 2026-05-07 15:09 | 53.17323 | -1.90119 | 11375 ft | 343 kts | 308° |
| 2026-05-07 15:09 | 53.18864 | -1.93124 | 10504 ft | 341 kts | 308° |
| 2026-05-07 15:10 | 53.20415 | -1.96158 | 9614 ft | 343 kts | 308° |
| 2026-05-07 15:10 | 53.21962 | -1.99173 | 8677 ft | 342 kts | 309° |
| 2026-05-07 15:10 | 53.23842 | -2.01606 | 7769 ft | 346 kts | 331° |
| 2026-05-07 15:10 | 53.26094 | -2.03029 | 6873 ft | 346 kts | 346° |
| 2026-05-07 15:11 | 53.28494 | -2.03166 | 5985 ft | 345 kts | 6° |
| 2026-05-07 15:11 | 53.30867 | -2.02646 | 5076 ft | 342 kts | 7° |
| 2026-05-07 15:11 | 53.33182 | -2.02147 | 4191 ft | 338 kts | 8° |
| 2026-05-07 15:11 | 53.35413 | -2.01001 | 3530 ft | 330 kts | 27° |
| 2026-05-07 15:12 | 53.37353 | -1.99249 | 3238 ft | 300 kts | 30° |
| 2026-05-07 15:12 | 53.39103 | -1.97649 | 3081 ft | 273 kts | 30° |
| 2026-05-07 15:12 | 53.40698 | -1.96205 | 3011 ft | 249 kts | 30° |
| 2026-05-07 15:12 | 53.42202 | -1.95121 | 3006 ft | 230 kts | 10° |
| 2026-05-07 15:13 | 53.43719 | -1.95187 | 3012 ft | 211 kts | 353° |
| 2026-05-07 15:13 | 53.45031 | -1.95437 | 3029 ft | 218 kts | 353° |
| 2026-05-07 15:13 | 53.46535 | -1.95896 | 3000 ft | 221 kts | 336° |
| 2026-05-07 15:13 | 53.47614 | -1.97607 | 3021 ft | 216 kts | 293° |
| 2026-05-07 15:14 | 53.47810 | -1.99997 | 3008 ft | 205 kts | 258° |
| 2026-05-07 15:14 | 53.47371 | -2.02132 | 3001 ft | 181 kts | 238° |
| 2026-05-07 15:14 | 53.46745 | -2.03784 | 2994 ft | 156 kts | 230° |
| 2026-05-07 15:14 | 53.46121 | -2.05172 | 2965 ft | 140 kts | 227° |
| 2026-05-07 15:15 | 53.45545 | -2.06381 | 3016 ft | 136 kts | 226° |
| 2026-05-07 15:15 | 53.44961 | -2.07592 | 2996 ft | 132 kts | 225° |
| 2026-05-07 15:15 | 53.44378 | -2.08801 | 2840 ft | 130 kts | 226° |
| 2026-05-07 15:15 | 53.43795 | -2.10008 | 2697 ft | 136 kts | 226° |
| 2026-05-07 15:16 | 53.43217 | -2.11221 | 2537 ft | 133 kts | 226° |
| 2026-05-07 15:16 | 53.42624 | -2.12450 | 2341 ft | 134 kts | 226° |
| 2026-05-07 15:16 | 53.42056 | -2.13632 | 2175 ft | 133 kts | 226° |
| 2026-05-07 15:16 | 53.41476 | -2.14840 | 1997 ft | 135 kts | 227° |
| 2026-05-07 15:17 | 53.40908 | -2.16023 | 1812 ft | 125 kts | 226° |
| 2026-05-07 15:17 | 53.40341 | -2.17190 | 1627 ft | 131 kts | 226° |
| 2026-05-07 15:17 | 53.39768 | -2.18384 | 1455 ft | 130 kts | 227° |
| 2026-05-07 15:17 | 53.39198 | -2.19570 | 1266 ft | 127 kts | 226° |
| 2026-05-07 15:18 | 53.38634 | -2.20734 | 1073 ft | 134 kts | 227° |
| 2026-05-07 15:18 | 53.38064 | -2.21928 | 962 ft | 129 kts | 228° |
| 2026-05-07 15:18 | 53.37487 | -2.23119 | 794 ft | 134 kts | 228° |
| 2026-05-07 15:18 | 53.36900 | -2.24333 | 594 ft | 132 kts | 229° |
| 2026-05-07 15:19 | 53.36319 | -2.25536 | 406 ft | 132 kts | 229° |
| 2026-05-07 15:19 | 53.35739 | -2.26730 | 291 ft | 133 kts | 228° |
| 2026-05-07 15:19 | 53.35180 | -2.27884 | 234 ft | 114 kts | 229° |
| 2026-05-07 15:19 | 53.34952 | -2.28353 | 228 ft | 1 kts | 264° |
| 2026-05-07 15:20 | 53.34952 | -2.28444 | 230 ft | 17 kts | 280° |
| 2026-05-07 15:20 | 53.34954 | -2.28533 | 227 ft | 2 kts | 250° |
| 2026-05-07 15:20 | 53.34939 | -2.28624 | 226 ft | 14 kts | 256° |
| 2026-05-07 15:20 | 53.34938 | -2.28692 | 225 ft | 7 kts | 293° |
| 2026-05-07 15:21 | 53.34946 | -2.28715 | 226 ft | 0 kts | 323° |
| 2026-05-07 15:23 | 53.34949 | -2.28719 | 225 ft | 3 kts | 323° |
| 2026-05-07 15:23 | 53.34984 | -2.28763 | 225 ft | 2 kts | 353° |
| 2026-05-07 15:23 | 53.35012 | -2.28749 | 227 ft | 7 kts | 44° |
| 2026-05-07 15:23 | 53.35065 | -2.28646 | 227 ft | 15 kts | 56° |
| 2026-05-07 15:24 | 53.35121 | -2.28532 | 228 ft | 16 kts | 52° |
| 2026-05-07 15:24 | 53.35207 | -2.28354 | 232 ft | 23 kts | 50° |
| 2026-05-07 15:24 | 53.35343 | -2.28184 | 235 ft | 27 kts | 15° |
| 2026-05-07 15:24 | 53.35445 | -2.28151 | 237 ft | 2 kts | 20° |
| 2026-05-07 15:25 | 53.35486 | -2.28128 | 237 ft | 10 kts | 26° |
| 2026-05-07 15:25 | 53.35563 | -2.28031 | 237 ft | 18 kts | 50° |
| 2026-05-07 15:25 | 53.35639 | -2.27893 | 238 ft | 13 kts | 18° |
| 2026-05-07 15:25 | 53.35752 | -2.27878 | 239 ft | 20 kts | 8° |
| 2026-05-07 15:26 | 53.35906 | -2.27850 | 241 ft | 19 kts | 7° |
| 2026-05-07 15:26 | 53.36057 | -2.27853 | 242 ft | 24 kts | 336° |
| 2026-05-07 15:26 | 53.36181 | -2.28052 | 241 ft | 28 kts | 316° |
| 2026-05-07 15:26 | 53.36336 | -2.28310 | 241 ft | 34 kts | 317° |
| 2026-05-07 15:27 | 53.36506 | -2.28590 | 241 ft | 37 kts | 313° |
| 2026-05-07 15:27 | 53.36584 | -2.28794 | 240 ft | 19 kts | 291° |
| 2026-05-07 15:27 | 53.36671 | -2.28912 | 241 ft | 9 kts | 333° |
| 2026-05-07 15:27 | 53.36691 | -2.28945 | 240 ft | 9 kts | 309° |
| 2026-05-07 15:28 | 53.36748 | -2.29042 | 241 ft | 1 kts | 336° |
| 2026-05-07 15:28 | 53.36778 | -2.29047 | 240 ft | 9 kts | 10° |
| 2026-05-07 15:28 | 53.36839 | -2.28984 | 241 ft | 13 kts | 42° |
| 2026-05-07 15:28 | 53.36897 | -2.28905 | 242 ft | 0 kts | 38° |
| 2026-05-07 15:29 | 53.36898 | -2.28903 | 242 ft | 0 kts | 42° |
| 2026-05-07 15:29 | 53.36898 | -2.28904 | 241 ft | 1 kts | 44° |
| 2026-05-07 15:29 | 53.36889 | -2.28920 | 242 ft | 0 kts | 51° |
| 2026-05-07 15:30 | 53.36889 | -2.28919 | 242 ft | 2 kts | 52° |
| 2026-05-07 15:30 | 53.36893 | -2.28914 | 242 ft | 2 kts | 91° |
| 2026-05-07 15:30 | 53.36886 | -2.28874 | 242 ft | 0 kts | 132° |
| 2026-05-07 15:30 | 53.36873 | -2.28852 | 242 ft | 1 kts | 139° |
| 2026-05-07 15:31 | 53.36862 | -2.28835 | 241 ft | 0 kts | 134° |
| 2026-05-07 15:31 | 53.36866 | -2.28841 | 237 ft | 1 kts | 135° |
| 2026-05-07 15:31 | 53.36866 | -2.28842 | 238 ft | 0 kts | 135° |